Main page
METAR-TAF:

METAR-TAF

Airports :

Chaudhary Charan Singh International Airport

Lucknow, India

latitude: 26-45N, longitude: 080-53E, elevation: 122 m

Current weather observation

The report was made 37 minutes ago, at 17:00 UTC
Wind 6 kt from the West/Northwest
Temperature 22°C
Humidity 46%
Pressure 1013 hPa
Visibility: 3000 m
haze

METAR: VILK 221700Z 29006KT 3000 HZ NSC 22/10 Q1013 NOSIG

Time: 23:07 (17:37 UTC)

Forecast

The report was made 37 minutes ago, at 17:00 UTC
Forecast valid from 22 at 18 UTC to 23 at 24 UTC
Wind 5 kt from the West/Northwest
Visibility: 3000 m
haze
Becoming
from 23 at 01 UTC to 23 at 03 UTC
Wind 2 kt from variable directions
Visibility: 2500 m
haze
Becoming
from 23 at 08 UTC to 23 at 10 UTC
Wind 8 kt from the Northwest
Visibility: 5000 m
haze

TAF: VILK 221700Z 2218/2324 29005KT 3000 HZ NSC BECMG 2301/2303 VRB02KT 2500 HZ BECMG 2308/2310 32008KT 5000 HZ

Weather observations and forecasts of more than 4000 airports (METAR and TAF reports).

The available stations are represented by yellow and red dots on the map.

Hover mouse over dot to see the name of the station.

Then click to see weather observations and forecasts.

To change the map : click on the green buttons with a black cross to zoom in, on the green button with a dash to zoom out, or on the green arrows for adjacent maps.


METAR-TAF: